sensor_id;sensor_type;location;lat;lon;timestamp;pressure;altitude;pressure_sealevel;temperature;humidity
67052;BME280;53957;47.222;18.670;2023-09-18T00:00:57;100410.13;;;16.81;100.00
67052;BME280;53957;47.222;18.670;2023-09-18T00:04:00;100415.69;;;16.76;100.00
67052;BME280;53957;47.222;18.670;2023-09-18T00:07:04;100400.66;;;16.66;100.00
67052;BME280;53957;47.222;18.670;2023-09-18T00:10:10;100403.37;;;16.57;100.00
67052;BME280;53957;47.222;18.670;2023-09-18T00:13:13;100403.37;;;16.57;100.00
67052;BME280;53957;47.222;18.670;2023-09-18T00:16:17;100398.12;;;16.52;100.00
67052;BME280;53957;47.222;18.670;2023-09-18T00:19:20;100397.66;;;16.50;100.00
67052;BME280;53957;47.222;18.670;2023-09-18T00:22:23;100397.81;;;16.45;100.00
67052;BME280;53957;47.222;18.670;2023-09-18T00:25:27;100398.62;;;16.36;100.00
67052;BME280;53957;47.222;18.670;2023-09-18T00:28:30;100402.06;;;16.46;100.00
67052;BME280;53957;47.222;18.670;2023-09-18T00:31:33;100405.44;;;16.34;100.00
67052;BME280;53957;47.222;18.670;2023-09-18T00:34:36;100401.31;;;16.28;100.00
67052;BME280;53957;47.222;18.670;2023-09-18T00:37:39;100398.78;;;16.22;100.00
67052;BME280;53957;47.222;18.670;2023-09-18T00:40:43;100405.25;;;16.30;100.00
67052;BME280;53957;47.222;18.670;2023-09-18T00:43:45;100397.97;;;16.48;100.00
67052;BME280;53957;47.222;18.670;2023-09-18T00:46:49;100395.44;;;16.34;100.00
67052;BME280;53957;47.222;18.670;2023-09-18T00:49:57;100399.41;;;16.19;100.00
67052;BME280;53957;47.222;18.670;2023-09-18T00:53:01;100394.66;;;16.16;100.00
67052;BME280;53957;47.222;18.670;2023-09-18T00:56:04;100391.31;;;16.19;100.00
67052;BME280;53957;47.222;18.670;2023-09-18T00:59:09;100388.16;;;16.08;100.00
67052;BME280;53957;47.222;18.670;2023-09-18T01:02:13;100383.41;;;16.05;100.00
67052;BME280;53957;47.222;18.670;2023-09-18T01:05:17;100382.75;;;16.08;100.00
67052;BME280;53957;47.222;18.670;2023-09-18T01:08:20;100378.81;;;16.06;100.00
67052;BME280;53957;47.222;18.670;2023-09-18T01:11:36;100379.75;;;16.01;100.00
67052;BME280;53957;47.222;18.670;2023-09-18T01:17:52;100384.81;;;15.94;100.00
67052;BME280;53957;47.222;18.670;2023-09-18T01:20:55;100388.63;;;15.93;100.00
67052;BME280;53957;47.222;18.670;2023-09-18T01:23:59;100379.84;;;15.78;100.00
67052;BME280;53957;47.222;18.670;2023-09-18T01:27:02;100375.87;;;15.67;100.00
67052;BME280;53957;47.222;18.670;2023-09-18T01:30:07;100378.06;;;15.65;100.00
67052;BME280;53957;47.222;18.670;2023-09-18T01:33:11;100382.41;;;15.84;100.00
67052;BME280;53957;47.222;18.670;2023-09-18T01:36:16;100387.06;;;15.52;100.00
67052;BME280;53957;47.222;18.670;2023-09-18T01:39:20;100382.34;;;15.57;100.00
67052;BME280;53957;47.222;18.670;2023-09-18T01:42:24;100385.94;;;15.44;100.00
67052;BME280;53957;47.222;18.670;2023-09-18T01:45:29;100394.44;;;15.37;100.00
67052;BME280;53957;47.222;18.670;2023-09-18T01:48:33;100393.63;;;15.28;100.00
67052;BME280;53957;47.222;18.670;2023-09-18T01:51:36;100391.06;;;15.23;100.00
67052;BME280;53957;47.222;18.670;2023-09-18T01:54:39;100392.78;;;15.19;100.00
67052;BME280;53957;47.222;18.670;2023-09-18T01:57:42;100390.50;;;15.35;100.00
67052;BME280;53957;47.222;18.670;2023-09-18T02:00:46;100392.47;;;15.20;100.00
67052;BME280;53957;47.222;18.670;2023-09-18T02:03:49;100388.75;;;15.07;100.00
67052;BME280;53957;47.222;18.670;2023-09-18T02:07:13;100391.44;;;15.07;100.00
67052;BME280;53957;47.222;18.670;2023-09-18T02:10:17;100393.50;;;15.02;100.00
67052;BME280;53957;47.222;18.670;2023-09-18T02:13:20;100384.16;;;14.99;100.00
67052;BME280;53957;47.222;18.670;2023-09-18T02:16:24;100392.94;;;14.91;100.00
67052;BME280;53957;47.222;18.670;2023-09-18T02:19:27;100389.22;;;15.01;100.00
67052;BME280;53957;47.222;18.670;2023-09-18T02:22:33;100384.16;;;14.76;100.00
67052;BME280;53957;47.222;18.670;2023-09-18T02:25:36;100387.84;;;14.80;100.00
67052;BME280;53957;47.222;18.670;2023-09-18T02:28:40;100390.28;;;14.91;100.00
67052;BME280;53957;47.222;18.670;2023-09-18T02:31:43;100394.09;;;14.98;100.00
67052;BME280;53957;47.222;18.670;2023-09-18T02:34:46;100399.09;;;15.14;100.00
67052;BME280;53957;47.222;18.670;2023-09-18T02:37:52;100389.13;;;14.83;100.00
67052;BME280;53957;47.222;18.670;2023-09-18T02:40:56;100382.72;;;14.70;100.00
67052;BME280;53957;47.222;18.670;2023-09-18T02:43:59;100388.72;;;14.67;100.00
67052;BME280;53957;47.222;18.670;2023-09-18T02:47:03;100392.22;;;14.99;100.00
67052;BME280;53957;47.222;18.670;2023-09-18T02:50:06;100393.75;;;14.69;100.00
67052;BME280;53957;47.222;18.670;2023-09-18T02:53:28;100393.69;;;14.60;100.00
67052;BME280;53957;47.222;18.670;2023-09-18T02:56:32;100397.78;;;14.57;100.00
67052;BME280;53957;47.222;18.670;2023-09-18T02:59:35;100395.69;;;14.54;100.00
67052;BME280;53957;47.222;18.670;2023-09-18T03:02:38;100397.59;;;14.54;100.00
67052;BME280;53957;47.222;18.670;2023-09-18T03:05:42;100403.84;;;14.26;100.00
67052;BME280;53957;47.222;18.670;2023-09-18T03:08:46;100396.25;;;14.42;100.00
67052;BME280;53957;47.222;18.670;2023-09-18T03:11:49;100389.06;;;14.74;100.00
67052;BME280;53957;47.222;18.670;2023-09-18T03:14:52;100379.09;;;14.52;100.00
67052;BME280;53957;47.222;18.670;2023-09-18T03:17:57;100383.66;;;14.52;100.00
67052;BME280;53957;47.222;18.670;2023-09-18T03:21:03;100386.34;;;14.52;100.00
67052;BME280;53957;47.222;18.670;2023-09-18T03:24:07;100373.59;;;14.57;100.00
67052;BME280;53957;47.222;18.670;2023-09-18T03:27:10;100370.88;;;14.71;100.00
67052;BME280;53957;47.222;18.670;2023-09-18T03:30:13;100369.53;;;14.60;100.00
67052;BME280;53957;47.222;18.670;2023-09-18T03:33:19;100378.22;;;14.43;100.00
67052;BME280;53957;47.222;18.670;2023-09-18T03:36:22;100370.25;;;14.29;100.00
67052;BME280;53957;47.222;18.670;2023-09-18T03:39:28;100378.28;;;14.29;100.00
67052;BME280;53957;47.222;18.670;2023-09-18T03:42:32;100364.12;;;14.14;100.00
67052;BME280;53957;47.222;18.670;2023-09-18T03:45:35;100364.94;;;14.38;100.00
67052;BME280;53957;47.222;18.670;2023-09-18T03:48:38;100374.59;;;14.39;100.00
67052;BME280;53957;47.222;18.670;2023-09-18T03:51:41;100360.09;;;14.26;100.00
67052;BME280;53957;47.222;18.670;2023-09-18T03:54:45;100359.25;;;14.39;100.00
67052;BME280;53957;47.222;18.670;2023-09-18T03:57:48;100358.34;;;14.21;100.00
67052;BME280;53957;47.222;18.670;2023-09-18T04:00:51;100355.97;;;14.20;100.00
67052;BME280;53957;47.222;18.670;2023-09-18T04:03:58;100362.41;;;14.18;100.00
67052;BME280;53957;47.222;18.670;2023-09-18T04:07:05;100361.22;;;14.25;100.00
67052;BME280;53957;47.222;18.670;2023-09-18T04:10:09;100347.94;;;14.42;100.00
67052;BME280;53957;47.222;18.670;2023-09-18T04:13:13;100342.75;;;14.46;100.00
67052;BME280;53957;47.222;18.670;2023-09-18T04:16:16;100344.81;;;14.49;100.00
67052;BME280;53957;47.222;18.670;2023-09-18T04:19:20;100351.34;;;14.11;100.00
67052;BME280;53957;47.222;18.670;2023-09-18T04:22:23;100335.13;;;14.39;100.00
67052;BME280;53957;47.222;18.670;2023-09-18T04:25:26;100330.19;;;14.32;100.00
67052;BME280;53957;47.222;18.670;2023-09-18T04:28:30;100325.53;;;14.24;100.00
67052;BME280;53957;47.222;18.670;2023-09-18T04:31:33;100336.56;;;14.45;100.00
67052;BME280;53957;47.222;18.670;2023-09-18T04:34:36;100333.94;;;14.54;100.00
67052;BME280;53957;47.222;18.670;2023-09-18T04:37:39;100334.66;;;14.37;100.00
67052;BME280;53957;47.222;18.670;2023-09-18T04:40:43;100340.50;;;14.62;100.00
67052;BME280;53957;47.222;18.670;2023-09-18T04:43:47;100335.34;;;14.52;100.00
67052;BME280;53957;47.222;18.670;2023-09-18T04:46:50;100332.34;;;14.67;100.00
67052;BME280;53957;47.222;18.670;2023-09-18T04:49:54;100332.69;;;14.74;100.00
67052;BME280;53957;47.222;18.670;2023-09-18T04:52:58;100338.72;;;14.80;100.00
67052;BME280;53957;47.222;18.670;2023-09-18T04:56:01;100338.53;;;14.76;100.00
67052;BME280;53957;47.222;18.670;2023-09-18T04:59:06;100333.66;;;14.78;100.00
67052;BME280;53957;47.222;18.670;2023-09-18T05:02:10;100339.03;;;14.78;100.00
67052;BME280;53957;47.222;18.670;2023-09-18T05:05:13;100347.00;;;14.92;100.00
67052;BME280;53957;47.222;18.670;2023-09-18T05:08:17;100337.47;;;15.18;100.00
67052;BME280;53957;47.222;18.670;2023-09-18T05:11:20;100339.94;;;15.05;100.00
67052;BME280;53957;47.222;18.670;2023-09-18T05:14:23;100342.06;;;15.26;100.00
67052;BME280;53957;47.222;18.670;2023-09-18T05:17:44;100346.84;;;15.38;100.00
67052;BME280;53957;47.222;18.670;2023-09-18T05:20:55;100351.09;;;15.30;100.00
67052;BME280;53957;47.222;18.670;2023-09-18T05:23:59;100357.47;;;15.43;100.00
67052;BME280;53957;47.222;18.670;2023-09-18T05:27:01;100366.66;;;15.51;100.00
67052;BME280;53957;47.222;18.670;2023-09-18T05:30:06;100357.03;;;15.58;100.00
67052;BME280;53957;47.222;18.670;2023-09-18T05:33:10;100359.66;;;15.99;100.00
67052;BME280;53957;47.222;18.670;2023-09-18T05:36:14;100358.53;;;16.17;100.00
67052;BME280;53957;47.222;18.670;2023-09-18T05:39:17;100351.12;;;16.23;100.00
67052;BME280;53957;47.222;18.670;2023-09-18T05:42:21;100356.81;;;16.39;100.00
67052;BME280;53957;47.222;18.670;2023-09-18T05:45:24;100363.59;;;16.54;100.00
67052;BME280;53957;47.222;18.670;2023-09-18T05:48:29;100350.78;;;16.51;100.00
67052;BME280;53957;47.222;18.670;2023-09-18T05:51:33;100350.78;;;16.51;100.00
67052;BME280;53957;47.222;18.670;2023-09-18T05:54:38;100359.31;;;16.62;100.00
67052;BME280;53957;47.222;18.670;2023-09-18T05:57:41;100351.31;;;16.83;100.00
67052;BME280;53957;47.222;18.670;2023-09-18T06:00:44;100342.78;;;16.81;100.00
67052;BME280;53957;47.222;18.670;2023-09-18T06:03:50;100348.47;;;16.88;100.00
67052;BME280;53957;47.222;18.670;2023-09-18T06:06:54;100358.44;;;16.96;100.00
67052;BME280;53957;47.222;18.670;2023-09-18T06:09:58;100359.72;;;16.99;100.00
67052;BME280;53957;47.222;18.670;2023-09-18T06:13:01;100359.37;;;17.09;100.00
67052;BME280;53957;47.222;18.670;2023-09-18T06:16:07;100356.56;;;17.35;100.00
67052;BME280;53957;47.222;18.670;2023-09-18T06:19:11;100333.69;;;17.42;100.00
67052;BME280;53957;47.222;18.670;2023-09-18T06:22:14;100329.41;;;17.11;100.00
67052;BME280;53957;47.222;18.670;2023-09-18T06:25:18;100333.44;;;17.55;100.00
67052;BME280;53957;47.222;18.670;2023-09-18T06:28:22;100331.44;;;17.74;100.00
67052;BME280;53957;47.222;18.670;2023-09-18T06:31:25;100340.97;;;17.92;100.00
67052;BME280;53957;47.222;18.670;2023-09-18T06:34:49;100347.19;;;17.63;100.00
67052;BME280;53957;47.222;18.670;2023-09-18T06:38:12;100348.91;;;17.97;100.00
67052;BME280;53957;47.222;18.670;2023-09-18T06:41:16;100340.31;;;18.38;100.00
67052;BME280;53957;47.222;18.670;2023-09-18T06:44:39;100338.25;;;18.56;100.00
67052;BME280;53957;47.222;18.670;2023-09-18T06:47:43;100338.16;;;18.43;100.00
67052;BME280;53957;47.222;18.670;2023-09-18T06:51:06;100324.66;;;18.43;100.00
67052;BME280;53957;47.222;18.670;2023-09-18T06:54:10;100329.31;;;19.01;100.00
67052;BME280;53957;47.222;18.670;2023-09-18T08:18:36;100287.25;;;22.29;100.00
67052;BME280;53957;47.222;18.670;2023-09-18T08:21:44;100286.66;;;22.39;100.00
67052;BME280;53957;47.222;18.670;2023-09-18T08:34:55;100290.03;;;23.59;100.00
67052;BME280;53957;47.222;18.670;2023-09-18T08:37:58;100290.03;;;23.59;100.00
67052;BME280;53957;47.222;18.670;2023-09-18T08:41:01;100289.62;;;23.27;100.00
67052;BME280;53957;47.222;18.670;2023-09-18T08:44:07;100298.63;;;23.61;100.00
67052;BME280;53957;47.222;18.670;2023-09-18T08:47:15;100304.41;;;23.56;100.00
67052;BME280;53957;47.222;18.670;2023-09-18T08:50:19;100316.41;;;23.52;99.84
67052;BME280;53957;47.222;18.670;2023-09-18T08:53:23;100308.41;;;23.93;99.50
67052;BME280;53957;47.222;18.670;2023-09-18T08:56:27;100300.63;;;23.95;97.95
67052;BME280;53957;47.222;18.670;2023-09-18T08:59:31;100284.66;;;24.31;94.03
67052;BME280;53957;47.222;18.670;2023-09-18T09:02:34;100291.56;;;24.21;96.06
67052;BME280;53957;47.222;18.670;2023-09-18T09:05:39;100296.12;;;24.51;92.51
67052;BME280;53957;47.222;18.670;2023-09-18T09:08:42;100294.63;;;24.57;91.47
67052;BME280;53957;47.222;18.670;2023-09-18T09:11:51;100291.31;;;24.79;91.12
67052;BME280;53957;47.222;18.670;2023-09-18T09:15:02;100288.16;;;24.76;91.48
67052;BME280;53957;47.222;18.670;2023-09-18T09:18:08;100284.41;;;24.92;89.21
67052;BME280;53957;47.222;18.670;2023-09-18T09:21:15;100290.72;;;25.07;89.20
67052;BME280;53957;47.222;18.670;2023-09-18T09:24:43;100287.94;;;25.00;86.45
67052;BME280;53957;47.222;18.670;2023-09-18T09:27:47;100284.81;;;25.57;85.02
67052;BME280;53957;47.222;18.670;2023-09-18T09:31:00;100274.81;;;25.20;86.54
67052;BME280;53957;47.222;18.670;2023-09-18T09:34:07;100272.13;;;26.12;85.07
67052;BME280;53957;47.222;18.670;2023-09-18T09:37:11;100266.28;;;26.67;78.97
67052;BME280;53957;47.222;18.670;2023-09-18T09:40:15;100254.91;;;26.08;77.90
67052;BME280;53957;47.222;18.670;2023-09-18T09:43:19;100257.69;;;26.26;79.10
67052;BME280;53957;47.222;18.670;2023-09-18T09:46:22;100254.53;;;26.31;78.45
67052;BME280;53957;47.222;18.670;2023-09-18T09:49:47;100263.16;;;26.51;75.99
67052;BME280;53957;47.222;18.670;2023-09-18T09:52:54;100259.66;;;26.76;75.14
67052;BME280;53957;47.222;18.670;2023-09-18T09:55:57;100255.75;;;26.70;76.29
67052;BME280;53957;47.222;18.670;2023-09-18T09:59:20;100240.13;;;26.81;71.62
67052;BME280;53957;47.222;18.670;2023-09-18T10:02:24;100236.97;;;26.75;75.77
67052;BME280;53957;47.222;18.670;2023-09-18T10:05:34;100235.41;;;26.42;74.93
67052;BME280;53957;47.222;18.670;2023-09-18T10:08:38;100224.88;;;26.26;75.61
67052;BME280;53957;47.222;18.670;2023-09-18T10:11:44;100231.13;;;26.55;73.76
67052;BME280;53957;47.222;18.670;2023-09-18T10:14:48;100216.25;;;26.89;70.93
67052;BME280;53957;47.222;18.670;2023-09-18T10:18:07;100203.72;;;26.88;69.96
67052;BME280;53957;47.222;18.670;2023-09-18T10:21:22;100206.06;;;26.96;71.05
67052;BME280;53957;47.222;18.670;2023-09-18T10:24:36;100210.78;;;26.85;70.85
67052;BME280;53957;47.222;18.670;2023-09-18T10:27:41;100203.75;;;26.80;72.02
67052;BME280;53957;47.222;18.670;2023-09-18T10:30:46;100213.09;;;26.97;68.77
67052;BME280;53957;47.222;18.670;2023-09-18T15:00:14;99915.13;;;27.90;50.37
67052;BME280;53957;47.222;18.670;2023-09-18T15:03:18;99900.31;;;27.84;50.61
67052;BME280;53957;47.222;18.670;2023-09-18T15:06:21;99895.13;;;27.93;50.58
67052;BME280;53957;47.222;18.670;2023-09-18T15:09:24;99884.03;;;28.08;50.44
67052;BME280;53957;47.222;18.670;2023-09-18T15:12:27;99876.81;;;28.21;49.24
67052;BME280;53957;47.222;18.670;2023-09-18T15:15:30;99872.91;;;28.19;49.68
67052;BME280;53957;47.222;18.670;2023-09-18T15:18:33;99864.28;;;28.20;49.47
67052;BME280;53957;47.222;18.670;2023-09-18T15:46:22;99837.94;;;27.64;49.95
67052;BME280;53957;47.222;18.670;2023-09-18T15:49:27;99850.13;;;27.60;48.86
67052;BME280;53957;47.222;18.670;2023-09-18T15:52:33;99842.19;;;27.66;49.45
67052;BME280;53957;47.222;18.670;2023-09-18T15:55:36;99839.75;;;27.40;50.18
67052;BME280;53957;47.222;18.670;2023-09-18T15:58:39;99828.09;;;27.29;50.34
67052;BME280;53957;47.222;18.670;2023-09-18T16:01:42;99823.03;;;27.27;50.90
67052;BME280;53957;47.222;18.670;2023-09-18T16:04:45;99819.22;;;27.18;50.91
67052;BME280;53957;47.222;18.670;2023-09-18T16:07:48;99817.66;;;27.16;51.67
67052;BME280;53957;47.222;18.670;2023-09-18T16:10:52;99807.19;;;27.08;51.39
67052;BME280;53957;47.222;18.670;2023-09-18T16:13:54;99801.44;;;26.95;51.80
67052;BME280;53957;47.222;18.670;2023-09-18T16:16:59;99795.22;;;26.91;52.26
67052;BME280;53957;47.222;18.670;2023-09-18T16:20:16;99794.87;;;26.85;52.62
67052;BME280;53957;47.222;18.670;2023-09-18T16:23:20;99784.00;;;26.78;53.45
67052;BME280;53957;47.222;18.670;2023-09-18T16:26:23;99776.62;;;26.67;53.84
67052;BME280;53957;47.222;18.670;2023-09-18T16:29:28;99795.03;;;26.63;54.62
67052;BME280;53957;47.222;18.670;2023-09-18T16:32:30;99791.16;;;26.61;56.05
67052;BME280;53957;47.222;18.670;2023-09-18T16:35:34;99792.78;;;26.51;56.05
67052;BME280;53957;47.222;18.670;2023-09-18T16:38:37;99791.59;;;26.52;55.94
67052;BME280;53957;47.222;18.670;2023-09-18T16:41:44;99793.59;;;26.48;56.42
67052;BME280;53957;47.222;18.670;2023-09-18T16:44:47;99781.06;;;26.50;56.21
67052;BME280;53957;47.222;18.670;2023-09-18T16:47:51;99775.69;;;26.36;56.25
67052;BME280;53957;47.222;18.670;2023-09-18T16:51:00;99764.75;;;26.36;55.55
67052;BME280;53957;47.222;18.670;2023-09-18T16:54:03;99762.44;;;26.34;55.03
67052;BME280;53957;47.222;18.670;2023-09-18T16:57:26;99756.63;;;26.29;55.18
67052;BME280;53957;47.222;18.670;2023-09-18T17:00:29;99748.09;;;26.19;55.06
67052;BME280;53957;47.222;18.670;2023-09-18T17:03:32;99753.16;;;26.21;55.03
67052;BME280;53957;47.222;18.670;2023-09-18T17:06:35;99746.50;;;26.22;54.85
67052;BME280;53957;47.222;18.670;2023-09-18T17:09:39;99752.06;;;26.04;55.53
67052;BME280;53957;47.222;18.670;2023-09-18T17:12:42;99750.94;;;25.98;56.24
67052;BME280;53957;47.222;18.670;2023-09-18T17:15:46;99754.06;;;25.96;56.04
67052;BME280;53957;47.222;18.670;2023-09-18T17:18:49;99761.06;;;26.01;56.05
67052;BME280;53957;47.222;18.670;2023-09-18T17:22:07;99758.72;;;25.99;56.33
67052;BME280;53957;47.222;18.670;2023-09-18T17:25:13;99758.78;;;25.92;56.67
67052;BME280;53957;47.222;18.670;2023-09-18T17:28:20;99758.78;;;25.88;57.28
67052;BME280;53957;47.222;18.670;2023-09-18T17:31:23;99756.50;;;25.76;58.02
67052;BME280;53957;47.222;18.670;2023-09-18T17:34:32;99750.28;;;25.76;58.17
67052;BME280;53957;47.222;18.670;2023-09-18T17:37:36;99754.56;;;25.73;58.50
67052;BME280;53957;47.222;18.670;2023-09-18T17:40:39;99755.75;;;25.76;58.27
67052;BME280;53957;47.222;18.670;2023-09-18T17:43:44;99745.62;;;25.65;59.10
67052;BME280;53957;47.222;18.670;2023-09-18T17:46:47;99752.66;;;25.66;59.43
67052;BME280;53957;47.222;18.670;2023-09-18T17:49:52;99744.84;;;25.68;59.26
67052;BME280;53957;47.222;18.670;2023-09-18T17:52:57;99740.97;;;25.62;59.92
67052;BME280;53957;47.222;18.670;2023-09-18T17:56:02;99738.56;;;25.71;59.28
67052;BME280;53957;47.222;18.670;2023-09-18T17:59:06;99742.50;;;25.67;59.69
67052;BME280;53957;47.222;18.670;2023-09-18T18:02:15;99744.88;;;25.65;59.87
67052;BME280;53957;47.222;18.670;2023-09-18T18:05:19;99743.31;;;25.60;60.51
67052;BME280;53957;47.222;18.670;2023-09-18T18:08:32;99745.62;;;25.62;60.49
67052;BME280;53957;47.222;18.670;2023-09-18T18:11:41;99738.59;;;25.64;60.36
67052;BME280;53957;47.222;18.670;2023-09-18T18:14:45;99745.66;;;25.58;61.10
67052;BME280;53957;47.222;18.670;2023-09-18T18:17:53;99734.75;;;25.54;61.11
67052;BME280;53957;47.222;18.670;2023-09-18T18:20:56;99743.00;;;25.47;61.50
67052;BME280;53957;47.222;18.670;2023-09-18T18:24:00;99750.81;;;25.42;62.05
67052;BME280;53957;47.222;18.670;2023-09-18T18:27:09;99754.34;;;25.28;62.93
67052;BME280;53957;47.222;18.670;2023-09-18T18:30:18;99748.06;;;25.31;63.02
67052;BME280;53957;47.222;18.670;2023-09-18T18:33:22;99752.03;;;25.15;63.99
67052;BME280;53957;47.222;18.670;2023-09-18T18:36:27;99745.78;;;25.15;64.52
67052;BME280;53957;47.222;18.670;2023-09-18T18:39:30;99736.84;;;25.00;65.47
67052;BME280;53957;47.222;18.670;2023-09-18T18:42:34;99745.03;;;24.89;65.71
67052;BME280;53957;47.222;18.670;2023-09-18T19:07:59;99721.69;;;24.88;66.34
67052;BME280;53957;47.222;18.670;2023-09-18T19:11:03;99725.56;;;24.94;65.91
67052;BME280;53957;47.222;18.670;2023-09-18T19:14:07;99723.22;;;24.89;66.26
67052;BME280;53957;47.222;18.670;2023-09-18T19:17:10;99724.00;;;24.93;66.29
67052;BME280;53957;47.222;18.670;2023-09-18T19:20:15;99716.19;;;24.91;65.97
67052;BME280;53957;47.222;18.670;2023-09-18T19:23:18;99709.97;;;25.02;65.32
67052;BME280;53957;47.222;18.670;2023-09-18T19:26:22;99714.59;;;25.08;65.02
67052;BME280;53957;47.222;18.670;2023-09-18T19:29:25;99709.16;;;25.08;64.97
67052;BME280;53957;47.222;18.670;2023-09-18T19:32:30;99701.34;;;25.11;65.10
67052;BME280;53957;47.222;18.670;2023-09-18T19:35:35;99700.97;;;25.05;65.15
67052;BME280;53957;47.222;18.670;2023-09-18T19:38:39;99688.50;;;25.07;65.25
67052;BME280;53957;47.222;18.670;2023-09-18T19:41:42;99695.50;;;25.16;64.23
67052;BME280;53957;47.222;18.670;2023-09-18T19:44:45;99686.94;;;25.10;65.08
67052;BME280;53957;47.222;18.670;2023-09-18T19:47:49;99691.59;;;25.10;65.05
67052;BME280;53957;47.222;18.670;2023-09-18T19:50:52;99695.91;;;25.07;65.33
67052;BME280;53957;47.222;18.670;2023-09-18T19:54:00;99697.03;;;25.17;64.78
67052;BME280;53957;47.222;18.670;2023-09-18T19:57:04;99690.78;;;25.20;64.87
67052;BME280;53957;47.222;18.670;2023-09-18T20:00:08;99685.72;;;25.22;65.30
67052;BME280;53957;47.222;18.670;2023-09-18T20:03:33;99688.09;;;25.16;65.44
67052;BME280;53957;47.222;18.670;2023-09-18T20:06:40;99691.19;;;25.15;65.57
67052;BME280;53957;47.222;18.670;2023-09-18T20:10:04;99700.53;;;25.17;65.78
67052;BME280;53957;47.222;18.670;2023-09-18T20:13:07;99689.28;;;25.08;66.26
67052;BME280;53957;47.222;18.670;2023-09-18T20:16:10;99701.34;;;25.11;66.03
67052;BME280;53957;47.222;18.670;2023-09-18T20:19:14;99683.44;;;25.02;66.42
67052;BME280;53957;47.222;18.670;2023-09-18T20:22:18;99691.28;;;24.97;66.98
67052;BME280;53957;47.222;18.670;2023-09-18T20:25:22;99685.81;;;25.00;66.30
67052;BME280;53957;47.222;18.670;2023-09-18T20:28:45;99686.59;;;24.90;66.34
67052;BME280;53957;47.222;18.670;2023-09-18T20:31:50;99685.84;;;24.86;66.11
67052;BME280;53957;47.222;18.670;2023-09-18T20:34:54;99678.06;;;24.77;66.44
67052;BME280;53957;47.222;18.670;2023-09-18T20:37:57;99669.09;;;24.73;66.82
67052;BME280;53957;47.222;18.670;2023-09-18T20:41:00;99667.91;;;24.63;67.37
67052;BME280;53957;47.222;18.670;2023-09-18T20:44:03;99679.63;;;24.56;67.94
67052;BME280;53957;47.222;18.670;2023-09-18T20:47:11;99673.00;;;24.54;68.20
67052;BME280;53957;47.222;18.670;2023-09-18T20:50:15;99667.56;;;24.43;69.08
67052;BME280;53957;47.222;18.670;2023-09-18T20:53:19;99678.44;;;24.39;69.96
67052;BME280;53957;47.222;18.670;2023-09-18T20:56:27;99668.34;;;24.36;70.20
